Terminal Aerodrome Forecast
Issued by NWS

Home | Current Version | Previous Version | Graphics & Text | Print | Product List | Glossary On
Versions: 1 2 3 4 5 6 7 8 9 10 11 12
000
FTUS45 KGGW 171120
TAFOLF
TAF
KOLF 171120Z 1712/1812 VRB03KT P6SM SCT150
     FM172100 30007KT P6SM BKN090
     FM180400 31007KT P6SM SCT050=

USA.gov is the U.S. government's official web portal to all federal, state and local government web resources and services.